createdAt,value
2023-03-13T00:04:45.636Z,100141.97
2023-03-13T00:11:28.107Z,100135.06
2023-03-13T00:18:10.450Z,100114.34
2023-03-13T00:24:52.890Z,100087.56
2023-03-13T00:31:35.342Z,100089.31
2023-03-13T00:38:17.624Z,100073.75
2023-03-13T00:45:00.048Z,100057.31
2023-03-13T00:51:42.461Z,100074.59
2023-03-13T00:58:27.874Z,100083.25
2023-03-13T01:05:10.869Z,100049.66
2023-03-13T01:11:53.145Z,100036.72
2023-03-13T01:18:37.774Z,100032.44
2023-03-13T01:25:20.120Z,100008.25
2023-03-13T01:32:02.808Z,99990.16
2023-03-13T01:38:50.202Z,99985.00
2023-03-13T01:45:59.850Z,99953.94
2023-03-13T01:52:46.197Z,99941.88
2023-03-13T01:59:42.525Z,99938.41
2023-03-13T02:06:28.457Z,99932.38
2023-03-13T02:13:15.242Z,99931.53
2023-03-13T02:19:57.576Z,99933.28
2023-03-13T02:26:40.024Z,99935.91
2023-03-13T02:33:29.015Z,99944.59
2023-03-13T02:40:17.700Z,99932.56
2023-03-13T02:47:00.364Z,99928.25
2023-03-13T02:53:44.824Z,99937.78
2023-03-13T03:00:27.917Z,99930.03
2023-03-13T03:07:11.307Z,99926.59
2023-03-13T03:13:55.123Z,99924.03
2023-03-13T03:20:38.471Z,99916.28
2023-03-13T03:27:20.842Z,99911.97
2023-03-13T03:34:08.381Z,99893.84
2023-03-13T03:40:51.108Z,99876.56
2023-03-13T03:47:33.743Z,99874.84
2023-03-13T03:54:16.474Z,99865.38
2023-03-13T04:00:59.880Z,99867.13
2023-03-13T04:07:42.856Z,99848.97
2023-03-13T04:14:25.344Z,99831.72
2023-03-13T04:21:08.305Z,99842.97
2023-03-13T04:27:59.163Z,99822.25
2023-03-13T04:34:47.549Z,99804.16
2023-03-13T04:41:55.044Z,99799.84
2023-03-13T04:48:51.225Z,99790.34
2023-03-13T04:55:51.827Z,99780.84
2023-03-13T05:02:56.965Z,99777.41
2023-03-13T05:09:50.793Z,99760.13
2023-03-13T05:16:51.307Z,99741.97
2023-03-13T05:23:51.884Z,99748.03
2023-03-13T05:30:54.920Z,99741.09
2023-03-13T05:37:51.267Z,99720.38
2023-03-13T05:45:00.788Z,99716.03
2023-03-13T05:52:12.577Z,99705.66
2023-03-13T05:59:13.297Z,99712.59
2023-03-13T06:06:14.563Z,99710.88
2023-03-13T06:13:18.964Z,99710.88
2023-03-13T06:20:05.893Z,99698.75
2023-03-13T06:26:51.926Z,99693.56
2023-03-13T06:33:34.964Z,99670.19
2023-03-13T06:40:17.500Z,99657.19
2023-03-13T06:46:59.900Z,99648.53
2023-03-13T06:53:42.861Z,99639.84
2023-03-13T07:00:25.602Z,99628.59
2023-03-13T07:07:07.960Z,99624.25
2023-03-13T07:13:50.244Z,99604.34
2023-03-13T07:20:32.691Z,99613.00
2023-03-13T07:27:17.480Z,99605.19
2023-03-13T07:34:00.119Z,99592.16
2023-03-13T07:40:52.650Z,99573.94
2023-03-13T07:47:35.628Z,99569.56
2023-03-13T07:54:17.981Z,99544.41
2023-03-13T08:01:00.829Z,99548.72
2023-03-13T08:07:45.475Z,99553.00
2023-03-13T08:14:28.704Z,99552.09
2023-03-13T08:21:16.752Z,99542.53
2023-03-13T08:28:01.479Z,99532.03
2023-03-13T08:34:44.713Z,99512.94
2023-03-13T08:41:30.554Z,99497.28
2023-03-13T08:48:12.869Z,99485.97
2023-03-13T08:54:55.230Z,99481.56
2023-03-13T09:01:37.659Z,99470.25
2023-03-13T09:08:20.002Z,99457.19
2023-03-13T09:15:02.264Z,99455.41
2023-03-13T09:21:46.548Z,99437.97
2023-03-13T09:28:29.415Z,99435.31
2023-03-13T09:35:11.915Z,99423.97
2023-03-13T09:42:35.805Z,99405.69
2023-03-13T09:49:32.154Z,99394.25
2023-03-13T09:56:20.733Z,99388.03
2023-03-13T10:03:17.214Z,99380.09
2023-03-13T10:10:02.243Z,99366.94
2023-03-13T10:17:20.923Z,99349.44
2023-03-13T10:24:58.582Z,99335.41
2023-03-13T10:31:44.912Z,99323.94
2023-03-13T10:38:27.344Z,99311.63
2023-03-13T10:45:18.669Z,99305.44
2023-03-13T10:52:06.519Z,99284.44
2023-03-13T10:58:52.484Z,99266.00
2023-03-13T11:05:45.090Z,99250.09
2023-03-13T11:12:27.978Z,99239.38
2023-03-13T11:19:19.225Z,99213.88
2023-03-13T11:26:28.275Z,99189.25
2023-03-13T11:33:33.814Z,99177.56
2023-03-13T11:40:26.810Z,99152.91
2023-03-13T11:47:38.330Z,99142.19
2023-03-13T11:54:57.007Z,99137.72
2023-03-13T12:01:51.587Z,99119.38
2023-03-13T12:08:46.388Z,99094.00
2023-03-13T12:16:00.636Z,99076.31
2023-03-13T12:23:17.174Z,99062.19
2023-03-13T12:30:04.756Z,99041.16
2023-03-13T12:37:12.010Z,99023.69
2023-03-13T12:44:08.400Z,99000.06
2023-03-13T12:51:24.636Z,98987.94
2023-03-13T12:58:24.757Z,98980.97
2023-03-13T13:05:17.670Z,98966.00
2023-03-13T13:12:25.281Z,98958.16
2023-03-13T13:19:25.884Z,98945.91
2023-03-13T13:26:36.862Z,98929.19
2023-03-13T13:33:19.163Z,98914.13
2023-03-13T13:40:16.739Z,98913.06
2023-03-13T13:47:01.861Z,98904.22
2023-03-13T13:54:01.555Z,98910.16
2023-03-13T14:00:53.435Z,98896.09
2023-03-13T14:07:41.981Z,98880.28
2023-03-13T14:14:24.240Z,98863.59
2023-03-13T14:21:14.028Z,98880.78
2023-03-13T14:27:56.751Z,98859.47
2023-03-13T14:34:38.987Z,98858.22
2023-03-13T14:41:42.945Z,98856.19
2023-03-13T14:48:34.381Z,98854.09
2023-03-13T14:55:22.659Z,98846.94
2023-03-13T15:02:20.805Z,98842.16
2023-03-13T15:09:21.734Z,98834.53
2023-03-13T15:16:17.149Z,98827.06
2023-03-13T15:22:59.426Z,98824.31
2023-03-13T15:29:41.630Z,98817.22
2023-03-13T15:36:24.324Z,98820.38
2023-03-13T15:43:06.624Z,98820.34
2023-03-13T15:49:49.264Z,98821.25
2023-03-13T15:56:36.775Z,98833.44
2023-03-13T16:03:27.474Z,98835.09
2023-03-13T16:10:26.359Z,98828.09
2023-03-13T16:17:18.411Z,98827.19
2023-03-13T16:24:01.117Z,98834.06
2023-03-13T16:30:44.116Z,98847.72
2023-03-13T16:37:26.452Z,98871.75
2023-03-13T16:44:08.805Z,98869.63
2023-03-13T16:50:51.277Z,98857.16
2023-03-13T16:57:33.578Z,98857.03
2023-03-13T17:04:15.895Z,98863.94
2023-03-13T17:10:58.142Z,98867.31
2023-03-13T17:17:41.291Z,98867.13
2023-03-13T17:24:23.549Z,98856.41
2023-03-13T17:31:06.313Z,98864.03
2023-03-13T17:37:49.537Z,98854.13
2023-03-13T17:44:31.830Z,98861.97
2023-03-13T17:51:28.432Z,98854.09
2023-03-13T17:58:11.209Z,98843.53
2023-03-13T18:04:53.735Z,98856.63
2023-03-13T18:11:38.434Z,98848.84
2023-03-13T18:18:20.713Z,98856.84
2023-03-13T18:25:03.065Z,98849.03
2023-03-13T18:31:45.675Z,98838.66
2023-03-13T18:38:27.897Z,98820.34
2023-03-13T18:45:19.086Z,98810.78
2023-03-13T18:52:01.461Z,98805.56
2023-03-13T18:58:44.725Z,98802.22
2023-03-13T19:05:26.972Z,98787.53
2023-03-13T19:12:12.180Z,98798.22
2023-03-13T19:18:54.963Z,98782.66
2023-03-13T19:25:37.252Z,98788.03
2023-03-13T19:32:19.647Z,98777.66
2023-03-13T19:39:02.214Z,98778.59
2023-03-13T19:45:44.619Z,98779.47
2023-03-13T19:52:28.293Z,98777.78
2023-03-13T19:59:24.047Z,98781.34
2023-03-13T20:06:06.928Z,98774.31
2023-03-13T20:12:49.320Z,98761.94
2023-03-13T20:19:31.926Z,98752.06
2023-03-13T20:26:16.965Z,98754.34
2023-03-13T20:33:00.142Z,98750.63
2023-03-13T20:39:42.678Z,98741.66
2023-03-13T20:46:25.130Z,98747.69
2023-03-13T20:53:08.052Z,98726.56
2023-03-13T20:59:50.690Z,98728.22
2023-03-13T21:06:33.982Z,98729.06
2023-03-13T21:13:16.274Z,98726.44
2023-03-13T21:19:58.603Z,98711.59
2023-03-13T21:26:40.781Z,98698.53
2023-03-13T21:33:23.832Z,98688.97
2023-03-13T21:40:07.954Z,98700.34
2023-03-13T21:46:52.251Z,98689.94
2023-03-13T21:53:35.672Z,98694.34
2023-03-13T22:00:18.724Z,98677.72
2023-03-13T22:07:01.065Z,98673.41
2023-03-13T22:13:43.450Z,98677.81
2023-03-13T22:20:25.792Z,98674.38
2023-03-13T22:27:10.195Z,98656.06
2023-03-13T22:33:52.485Z,98637.81
2023-03-13T22:40:35.041Z,98604.69
2023-03-13T22:47:17.292Z,98595.97
2023-03-13T22:53:59.869Z,98595.13
2023-03-13T23:00:42.250Z,98594.34
2023-03-13T23:07:28.503Z,98568.09
2023-03-13T23:14:10.826Z,98578.59
2023-03-13T23:20:54.377Z,98573.28
2023-03-13T23:27:36.983Z,98590.66
2023-03-13T23:34:21.962Z,98592.28
2023-03-13T23:41:10.048Z,98591.28
2023-03-13T23:47:53.574Z,98585.00
2023-03-13T23:54:36.228Z,98582.97
